sensor_id;sensor_type;location;lat;lon;timestamp;temperature;humidity
38582;DHT22;24349;53.720;10.014;2024-02-15T00:00:12;11.40;99.90
38582;DHT22;24349;53.720;10.014;2024-02-15T00:02:38;11.40;99.90
38582;DHT22;24349;53.720;10.014;2024-02-15T00:05:04;11.40;99.90
38582;DHT22;24349;53.720;10.014;2024-02-15T00:07:30;11.40;99.90
38582;DHT22;24349;53.720;10.014;2024-02-15T00:09:55;11.40;99.90
38582;DHT22;24349;53.720;10.014;2024-02-15T00:12:21;11.40;99.90
38582;DHT22;24349;53.720;10.014;2024-02-15T00:14:47;11.40;99.90
38582;DHT22;24349;53.720;10.014;2024-02-15T00:17:12;11.40;99.90
38582;DHT22;24349;53.720;10.014;2024-02-15T00:19:38;11.40;99.90
38582;DHT22;24349;53.720;10.014;2024-02-15T00:22:05;11.40;99.90
38582;DHT22;24349;53.720;10.014;2024-02-15T00:24:31;11.40;99.90
38582;DHT22;24349;53.720;10.014;2024-02-15T00:26:57;11.50;99.90
38582;DHT22;24349;53.720;10.014;2024-02-15T00:29:23;11.50;99.90
38582;DHT22;24349;53.720;10.014;2024-02-15T00:31:50;11.40;99.90
38582;DHT22;24349;53.720;10.014;2024-02-15T00:34:15;11.50;99.90
38582;DHT22;24349;53.720;10.014;2024-02-15T00:36:44;11.50;99.90
38582;DHT22;24349;53.720;10.014;2024-02-15T00:39:10;11.40;99.90
38582;DHT22;24349;53.720;10.014;2024-02-15T00:41:37;11.50;99.90
38582;DHT22;24349;53.720;10.014;2024-02-15T00:44:09;11.40;99.90
38582;DHT22;24349;53.720;10.014;2024-02-15T00:46:36;11.40;99.90
38582;DHT22;24349;53.720;10.014;2024-02-15T00:49:02;11.40;99.90
38582;DHT22;24349;53.720;10.014;2024-02-15T00:51:29;11.50;99.90
38582;DHT22;24349;53.720;10.014;2024-02-15T00:53:54;11.40;99.90
38582;DHT22;24349;53.720;10.014;2024-02-15T00:56:20;11.40;99.90
38582;DHT22;24349;53.720;10.014;2024-02-15T00:58:45;11.40;99.90
38582;DHT22;24349;53.720;10.014;2024-02-15T01:01:11;11.40;99.90
38582;DHT22;24349;53.720;10.014;2024-02-15T01:03:37;11.40;99.90
38582;DHT22;24349;53.720;10.014;2024-02-15T01:06:03;11.50;99.90
38582;DHT22;24349;53.720;10.014;2024-02-15T01:08:30;11.40;99.90
38582;DHT22;24349;53.720;10.014;2024-02-15T01:10:56;11.40;99.90
38582;DHT22;24349;53.720;10.014;2024-02-15T01:13:22;11.40;99.90
38582;DHT22;24349;53.720;10.014;2024-02-15T01:15:47;11.40;99.90
38582;DHT22;24349;53.720;10.014;2024-02-15T01:18:13;11.50;99.90
38582;DHT22;24349;53.720;10.014;2024-02-15T01:20:39;11.40;99.90
38582;DHT22;24349;53.720;10.014;2024-02-15T01:23:05;11.40;99.90
38582;DHT22;24349;53.720;10.014;2024-02-15T01:25:33;11.40;99.90
38582;DHT22;24349;53.720;10.014;2024-02-15T01:27:58;11.50;99.90
38582;DHT22;24349;53.720;10.014;2024-02-15T01:30:24;11.40;99.90
38582;DHT22;24349;53.720;10.014;2024-02-15T01:32:50;11.40;99.90
38582;DHT22;24349;53.720;10.014;2024-02-15T01:35:15;11.40;99.90
38582;DHT22;24349;53.720;10.014;2024-02-15T01:37:41;11.40;99.90
38582;DHT22;24349;53.720;10.014;2024-02-15T01:40:07;11.50;99.90
38582;DHT22;24349;53.720;10.014;2024-02-15T01:42:33;11.40;99.90
38582;DHT22;24349;53.720;10.014;2024-02-15T01:44:58;11.40;99.90
38582;DHT22;24349;53.720;10.014;2024-02-15T01:47:25;11.40;99.90
38582;DHT22;24349;53.720;10.014;2024-02-15T01:49:52;11.50;99.90
38582;DHT22;24349;53.720;10.014;2024-02-15T01:52:18;11.40;99.90
38582;DHT22;24349;53.720;10.014;2024-02-15T01:54:45;11.40;99.90
38582;DHT22;24349;53.720;10.014;2024-02-15T01:57:11;11.40;99.90
38582;DHT22;24349;53.720;10.014;2024-02-15T01:59:37;11.40;99.90
38582;DHT22;24349;53.720;10.014;2024-02-15T02:02:02;11.40;99.90
38582;DHT22;24349;53.720;10.014;2024-02-15T02:04:29;11.50;99.90
38582;DHT22;24349;53.720;10.014;2024-02-15T02:06:57;11.40;99.90
38582;DHT22;24349;53.720;10.014;2024-02-15T02:09:24;11.50;99.90
38582;DHT22;24349;53.720;10.014;2024-02-15T02:11:50;11.50;99.90
38582;DHT22;24349;53.720;10.014;2024-02-15T02:14:16;11.50;99.90
38582;DHT22;24349;53.720;10.014;2024-02-15T02:16:42;11.50;99.90
38582;DHT22;24349;53.720;10.014;2024-02-15T02:19:07;11.50;99.90
38582;DHT22;24349;53.720;10.014;2024-02-15T02:21:35;11.50;99.90
38582;DHT22;24349;53.720;10.014;2024-02-15T02:24:03;11.50;99.90
38582;DHT22;24349;53.720;10.014;2024-02-15T02:26:34;11.50;99.90
38582;DHT22;24349;53.720;10.014;2024-02-15T02:29:02;11.50;99.90
38582;DHT22;24349;53.720;10.014;2024-02-15T02:31:33;11.50;99.90
38582;DHT22;24349;53.720;10.014;2024-02-15T02:34:00;11.60;99.90
38582;DHT22;24349;53.720;10.014;2024-02-15T02:36:26;11.50;99.90
38582;DHT22;24349;53.720;10.014;2024-02-15T02:38:52;11.60;99.90
38582;DHT22;24349;53.720;10.014;2024-02-15T02:41:18;11.60;99.90
38582;DHT22;24349;53.720;10.014;2024-02-15T02:43:48;11.60;99.90
38582;DHT22;24349;53.720;10.014;2024-02-15T02:46:14;11.60;99.90
38582;DHT22;24349;53.720;10.014;2024-02-15T02:48:40;11.50;99.90
38582;DHT22;24349;53.720;10.014;2024-02-15T02:51:07;11.60;99.90
38582;DHT22;24349;53.720;10.014;2024-02-15T02:53:32;11.50;99.90
38582;DHT22;24349;53.720;10.014;2024-02-15T02:55:58;11.50;99.90
38582;DHT22;24349;53.720;10.014;2024-02-15T02:58:24;11.50;99.90
38582;DHT22;24349;53.720;10.014;2024-02-15T03:00:50;11.60;99.90
38582;DHT22;24349;53.720;10.014;2024-02-15T03:03:17;11.60;99.90
38582;DHT22;24349;53.720;10.014;2024-02-15T03:05:44;11.60;99.90
38582;DHT22;24349;53.720;10.014;2024-02-15T03:08:11;11.60;99.90
38582;DHT22;24349;53.720;10.014;2024-02-15T03:10:38;11.60;99.90
38582;DHT22;24349;53.720;10.014;2024-02-15T03:13:05;11.50;99.90
38582;DHT22;24349;53.720;10.014;2024-02-15T03:15:30;11.60;99.90
38582;DHT22;24349;53.720;10.014;2024-02-15T03:17:58;11.60;99.90
38582;DHT22;24349;53.720;10.014;2024-02-15T03:20:24;11.50;99.90
38582;DHT22;24349;53.720;10.014;2024-02-15T03:25:19;11.60;99.90
38582;DHT22;24349;53.720;10.014;2024-02-15T03:27:44;11.50;99.90
38582;DHT22;24349;53.720;10.014;2024-02-15T03:30:10;11.50;99.90
38582;DHT22;24349;53.720;10.014;2024-02-15T03:32:36;11.50;99.90
38582;DHT22;24349;53.720;10.014;2024-02-15T03:35:02;11.60;99.90
38582;DHT22;24349;53.720;10.014;2024-02-15T03:37:28;11.60;99.90
38582;DHT22;24349;53.720;10.014;2024-02-15T03:39:54;11.60;99.90
38582;DHT22;24349;53.720;10.014;2024-02-15T03:42:20;11.60;99.90
38582;DHT22;24349;53.720;10.014;2024-02-15T03:44:46;11.60;99.90
38582;DHT22;24349;53.720;10.014;2024-02-15T03:47:13;11.60;99.90
38582;DHT22;24349;53.720;10.014;2024-02-15T03:49:40;11.60;99.90
38582;DHT22;24349;53.720;10.014;2024-02-15T03:52:07;11.60;99.90
38582;DHT22;24349;53.720;10.014;2024-02-15T03:54:36;11.60;99.90
38582;DHT22;24349;53.720;10.014;2024-02-15T03:57:01;11.60;99.90
38582;DHT22;24349;53.720;10.014;2024-02-15T03:59:27;11.60;99.90
38582;DHT22;24349;53.720;10.014;2024-02-15T04:01:53;11.60;99.90
38582;DHT22;24349;53.720;10.014;2024-02-15T04:04:19;11.70;99.90
38582;DHT22;24349;53.720;10.014;2024-02-15T04:06:49;11.60;99.90
38582;DHT22;24349;53.720;10.014;2024-02-15T04:09:15;11.60;99.90
38582;DHT22;24349;53.720;10.014;2024-02-15T04:11:43;11.60;99.90
38582;DHT22;24349;53.720;10.014;2024-02-15T04:14:09;11.70;99.90
38582;DHT22;24349;53.720;10.014;2024-02-15T04:16:35;11.60;99.90
38582;DHT22;24349;53.720;10.014;2024-02-15T04:19:01;11.60;99.90
38582;DHT22;24349;53.720;10.014;2024-02-15T04:21:27;11.60;99.90
38582;DHT22;24349;53.720;10.014;2024-02-15T04:23:53;11.60;99.90
38582;DHT22;24349;53.720;10.014;2024-02-15T04:26:19;11.60;99.90
38582;DHT22;24349;53.720;10.014;2024-02-15T04:28:45;11.60;99.90
38582;DHT22;24349;53.720;10.014;2024-02-15T04:31:14;11.70;99.90
38582;DHT22;24349;53.720;10.014;2024-02-15T04:33:40;11.60;99.90
38582;DHT22;24349;53.720;10.014;2024-02-15T04:36:06;11.70;99.90
38582;DHT22;24349;53.720;10.014;2024-02-15T04:38:32;11.60;99.90
38582;DHT22;24349;53.720;10.014;2024-02-15T04:41:01;11.60;99.90
38582;DHT22;24349;53.720;10.014;2024-02-15T04:43:29;11.60;99.90
38582;DHT22;24349;53.720;10.014;2024-02-15T04:45:55;11.60;99.90
38582;DHT22;24349;53.720;10.014;2024-02-15T04:48:20;11.60;99.90
38582;DHT22;24349;53.720;10.014;2024-02-15T04:50:48;11.60;99.90
38582;DHT22;24349;53.720;10.014;2024-02-15T04:53:14;11.60;99.90
38582;DHT22;24349;53.720;10.014;2024-02-15T04:55:40;11.60;99.90
38582;DHT22;24349;53.720;10.014;2024-02-15T04:58:06;11.60;99.90
38582;DHT22;24349;53.720;10.014;2024-02-15T05:00:31;11.60;99.90
38582;DHT22;24349;53.720;10.014;2024-02-15T05:02:57;11.60;99.90
38582;DHT22;24349;53.720;10.014;2024-02-15T05:05:23;11.60;99.90
38582;DHT22;24349;53.720;10.014;2024-02-15T05:07:50;11.60;99.90
38582;DHT22;24349;53.720;10.014;2024-02-15T05:10:16;11.60;99.90
38582;DHT22;24349;53.720;10.014;2024-02-15T05:12:41;11.60;99.90
38582;DHT22;24349;53.720;10.014;2024-02-15T05:15:09;11.60;99.90
38582;DHT22;24349;53.720;10.014;2024-02-15T05:17:40;11.60;99.90
38582;DHT22;24349;53.720;10.014;2024-02-15T05:20:10;11.60;99.90
38582;DHT22;24349;53.720;10.014;2024-02-15T05:22:38;11.60;99.90
38582;DHT22;24349;53.720;10.014;2024-02-15T05:25:05;11.60;99.90
38582;DHT22;24349;53.720;10.014;2024-02-15T05:27:31;11.60;99.90
38582;DHT22;24349;53.720;10.014;2024-02-15T05:29:57;11.60;99.90
38582;DHT22;24349;53.720;10.014;2024-02-15T05:32:22;11.60;99.90
38582;DHT22;24349;53.720;10.014;2024-02-15T05:34:48;11.60;99.90
38582;DHT22;24349;53.720;10.014;2024-02-15T05:37:16;11.60;99.90
38582;DHT22;24349;53.720;10.014;2024-02-15T05:39:42;11.70;99.90
38582;DHT22;24349;53.720;10.014;2024-02-15T05:42:08;11.70;99.90
38582;DHT22;24349;53.720;10.014;2024-02-15T05:44:35;11.70;99.90
38582;DHT22;24349;53.720;10.014;2024-02-15T05:47:01;11.80;99.90
38582;DHT22;24349;53.720;10.014;2024-02-15T05:49:27;11.80;99.90
38582;DHT22;24349;53.720;10.014;2024-02-15T05:51:53;11.80;99.90
38582;DHT22;24349;53.720;10.014;2024-02-15T05:54:22;11.70;99.90
38582;DHT22;24349;53.720;10.014;2024-02-15T05:56:48;11.70;99.90
38582;DHT22;24349;53.720;10.014;2024-02-15T05:59:17;11.70;99.90
38582;DHT22;24349;53.720;10.014;2024-02-15T06:01:45;11.70;99.90
38582;DHT22;24349;53.720;10.014;2024-02-15T06:04:14;11.70;99.90
38582;DHT22;24349;53.720;10.014;2024-02-15T06:06:40;11.70;99.90
38582;DHT22;24349;53.720;10.014;2024-02-15T06:09:05;11.70;99.90
38582;DHT22;24349;53.720;10.014;2024-02-15T06:11:31;11.70;99.90
38582;DHT22;24349;53.720;10.014;2024-02-15T06:13:58;11.70;99.90
38582;DHT22;24349;53.720;10.014;2024-02-15T06:16:23;11.70;99.90
38582;DHT22;24349;53.720;10.014;2024-02-15T06:18:49;11.70;99.90
38582;DHT22;24349;53.720;10.014;2024-02-15T06:21:15;11.70;99.90
38582;DHT22;24349;53.720;10.014;2024-02-15T06:23:41;11.80;99.90
38582;DHT22;24349;53.720;10.014;2024-02-15T06:26:07;11.80;99.90
38582;DHT22;24349;53.720;10.014;2024-02-15T06:28:32;11.80;99.90
38582;DHT22;24349;53.720;10.014;2024-02-15T06:31:16;11.80;99.90
38582;DHT22;24349;53.720;10.014;2024-02-15T06:34:01;11.80;99.90
38582;DHT22;24349;53.720;10.014;2024-02-15T06:36:50;11.80;99.90
38582;DHT22;24349;53.720;10.014;2024-02-15T06:39:35;11.80;99.90
38582;DHT22;24349;53.720;10.014;2024-02-15T06:42:07;11.80;99.90
38582;DHT22;24349;53.720;10.014;2024-02-15T06:44:32;11.80;99.90
38582;DHT22;24349;53.720;10.014;2024-02-15T06:46:58;11.80;99.90
38582;DHT22;24349;53.720;10.014;2024-02-15T06:49:25;11.80;99.90
38582;DHT22;24349;53.720;10.014;2024-02-15T06:51:51;11.80;99.90
38582;DHT22;24349;53.720;10.014;2024-02-15T06:54:16;11.80;99.90
38582;DHT22;24349;53.720;10.014;2024-02-15T06:56:45;11.80;99.90
38582;DHT22;24349;53.720;10.014;2024-02-15T06:59:12;11.90;99.90
38582;DHT22;24349;53.720;10.014;2024-02-15T07:01:42;11.90;99.90
38582;DHT22;24349;53.720;10.014;2024-02-15T07:04:08;11.80;99.90
38582;DHT22;24349;53.720;10.014;2024-02-15T07:06:37;11.90;99.90
38582;DHT22;24349;53.720;10.014;2024-02-15T07:09:04;11.90;99.90
38582;DHT22;24349;53.720;10.014;2024-02-15T07:11:32;11.90;99.90
38582;DHT22;24349;53.720;10.014;2024-02-15T07:13:58;11.90;99.90
38582;DHT22;24349;53.720;10.014;2024-02-15T07:16:23;12.00;99.90
38582;DHT22;24349;53.720;10.014;2024-02-15T07:18:49;11.90;99.90
38582;DHT22;24349;53.720;10.014;2024-02-15T07:21:15;11.90;99.90
38582;DHT22;24349;53.720;10.014;2024-02-15T07:23:42;11.90;99.90
38582;DHT22;24349;53.720;10.014;2024-02-15T07:26:08;11.90;99.90
38582;DHT22;24349;53.720;10.014;2024-02-15T07:28:34;11.90;99.90
38582;DHT22;24349;53.720;10.014;2024-02-15T07:30:59;11.90;99.90
38582;DHT22;24349;53.720;10.014;2024-02-15T07:33:28;11.80;99.90
38582;DHT22;24349;53.720;10.014;2024-02-15T07:35:54;11.90;99.90
38582;DHT22;24349;53.720;10.014;2024-02-15T07:38:20;11.80;99.90
38582;DHT22;24349;53.720;10.014;2024-02-15T07:40:48;11.80;99.90
38582;DHT22;24349;53.720;10.014;2024-02-15T07:43:14;11.80;99.90
38582;DHT22;24349;53.720;10.014;2024-02-15T07:45:40;11.80;99.90
38582;DHT22;24349;53.720;10.014;2024-02-15T07:48:06;11.80;99.90
38582;DHT22;24349;53.720;10.014;2024-02-15T07:50:32;11.80;99.90
38582;DHT22;24349;53.720;10.014;2024-02-15T07:52:57;11.80;99.90
38582;DHT22;24349;53.720;10.014;2024-02-15T07:55:23;11.80;99.90
38582;DHT22;24349;53.720;10.014;2024-02-15T07:57:50;11.80;99.90
38582;DHT22;24349;53.720;10.014;2024-02-15T08:00:17;11.80;99.90
38582;DHT22;24349;53.720;10.014;2024-02-15T08:02:43;11.80;99.90
38582;DHT22;24349;53.720;10.014;2024-02-15T08:05:12;11.80;99.90
38582;DHT22;24349;53.720;10.014;2024-02-15T08:07:44;11.80;99.90
38582;DHT22;24349;53.720;10.014;2024-02-15T08:10:11;11.80;99.90
38582;DHT22;24349;53.720;10.014;2024-02-15T08:12:46;11.90;99.90
38582;DHT22;24349;53.720;10.014;2024-02-15T08:15:12;11.80;99.90
38582;DHT22;24349;53.720;10.014;2024-02-15T08:17:42;11.80;99.90
38582;DHT22;24349;53.720;10.014;2024-02-15T08:20:10;11.90;99.90
38582;DHT22;24349;53.720;10.014;2024-02-15T08:22:37;11.90;99.90
38582;DHT22;24349;53.720;10.014;2024-02-15T08:27:39;11.90;99.90
38582;DHT22;24349;53.720;10.014;2024-02-15T08:30:16;11.90;99.90
38582;DHT22;24349;53.720;10.014;2024-02-15T08:32:42;11.90;99.90
38582;DHT22;24349;53.720;10.014;2024-02-15T08:35:08;11.90;99.90
38582;DHT22;24349;53.720;10.014;2024-02-15T08:37:35;11.90;99.90
38582;DHT22;24349;53.720;10.014;2024-02-15T08:40:05;11.90;99.90
38582;DHT22;24349;53.720;10.014;2024-02-15T08:42:43;11.90;99.90
38582;DHT22;24349;53.720;10.014;2024-02-15T08:45:10;12.00;99.90
38582;DHT22;24349;53.720;10.014;2024-02-15T08:47:39;12.00;99.90
38582;DHT22;24349;53.720;10.014;2024-02-15T08:50:06;12.00;99.90
38582;DHT22;24349;53.720;10.014;2024-02-15T08:52:35;12.10;99.90
38582;DHT22;24349;53.720;10.014;2024-02-15T08:55:04;12.10;99.90
38582;DHT22;24349;53.720;10.014;2024-02-15T08:57:32;12.10;99.90
38582;DHT22;24349;53.720;10.014;2024-02-15T08:59:58;12.10;99.90
38582;DHT22;24349;53.720;10.014;2024-02-15T09:02:23;12.20;99.90
38582;DHT22;24349;53.720;10.014;2024-02-15T09:04:49;12.20;99.90
38582;DHT22;24349;53.720;10.014;2024-02-15T09:07:15;12.20;99.90
38582;DHT22;24349;53.720;10.014;2024-02-15T09:09:40;12.20;99.90
38582;DHT22;24349;53.720;10.014;2024-02-15T09:12:06;12.20;99.90
38582;DHT22;24349;53.720;10.014;2024-02-15T09:14:33;12.30;99.90
38582;DHT22;24349;53.720;10.014;2024-02-15T09:17:00;12.30;99.90
38582;DHT22;24349;53.720;10.014;2024-02-15T09:19:25;12.30;99.90
38582;DHT22;24349;53.720;10.014;2024-02-15T09:21:51;12.40;99.90
38582;DHT22;24349;53.720;10.014;2024-02-15T09:24:17;12.40;99.90
38582;DHT22;24349;53.720;10.014;2024-02-15T09:26:42;12.40;99.90
38582;DHT22;24349;53.720;10.014;2024-02-15T09:29:09;12.40;99.90
38582;DHT22;24349;53.720;10.014;2024-02-15T09:31:35;12.40;99.90
38582;DHT22;24349;53.720;10.014;2024-02-15T09:34:02;12.40;99.90
38582;DHT22;24349;53.720;10.014;2024-02-15T09:36:35;12.40;99.90
38582;DHT22;24349;53.720;10.014;2024-02-15T09:39:03;12.40;99.90
38582;DHT22;24349;53.720;10.014;2024-02-15T09:41:29;12.40;99.90
38582;DHT22;24349;53.720;10.014;2024-02-15T09:43:54;12.50;99.90
38582;DHT22;24349;53.720;10.014;2024-02-15T09:46:20;12.50;99.90
38582;DHT22;24349;53.720;10.014;2024-02-15T09:48:51;12.50;99.90
38582;DHT22;24349;53.720;10.014;2024-02-15T09:51:27;12.60;99.90
38582;DHT22;24349;53.720;10.014;2024-02-15T09:53:57;12.60;99.90
38582;DHT22;24349;53.720;10.014;2024-02-15T09:56:24;12.60;99.90
38582;DHT22;24349;53.720;10.014;2024-02-15T09:58:51;12.60;99.90
38582;DHT22;24349;53.720;10.014;2024-02-15T10:01:20;12.70;99.90
38582;DHT22;24349;53.720;10.014;2024-02-15T10:03:49;12.70;99.90
38582;DHT22;24349;53.720;10.014;2024-02-15T10:06:18;12.60;99.90
38582;DHT22;24349;53.720;10.014;2024-02-15T10:08:44;12.60;99.90
38582;DHT22;24349;53.720;10.014;2024-02-15T10:11:12;12.60;99.90
38582;DHT22;24349;53.720;10.014;2024-02-15T10:13:38;12.60;99.90
38582;DHT22;24349;53.720;10.014;2024-02-15T10:16:19;12.60;99.90
38582;DHT22;24349;53.720;10.014;2024-02-15T10:18:45;12.60;99.90
38582;DHT22;24349;53.720;10.014;2024-02-15T10:21:27;12.60;99.90
38582;DHT22;24349;53.720;10.014;2024-02-15T10:24:08;12.60;99.90
38582;DHT22;24349;53.720;10.014;2024-02-15T10:26:35;12.60;99.90
38582;DHT22;24349;53.720;10.014;2024-02-15T10:29:11;12.70;99.90
38582;DHT22;24349;53.720;10.014;2024-02-15T10:31:51;12.70;99.90
38582;DHT22;24349;53.720;10.014;2024-02-15T10:34:18;12.70;99.90
38582;DHT22;24349;53.720;10.014;2024-02-15T10:36:44;12.70;99.90
38582;DHT22;24349;53.720;10.014;2024-02-15T10:39:14;12.80;99.90
38582;DHT22;24349;53.720;10.014;2024-02-15T10:41:45;12.70;99.90
38582;DHT22;24349;53.720;10.014;2024-02-15T10:44:19;12.70;99.90
38582;DHT22;24349;53.720;10.014;2024-02-15T10:46:49;12.70;99.90
38582;DHT22;24349;53.720;10.014;2024-02-15T10:49:18;12.70;99.90
38582;DHT22;24349;53.720;10.014;2024-02-15T10:51:44;12.70;99.90
38582;DHT22;24349;53.720;10.014;2024-02-15T10:54:18;12.80;99.90
38582;DHT22;24349;53.720;10.014;2024-02-15T10:56:49;12.70;99.90
38582;DHT22;24349;53.720;10.014;2024-02-15T10:59:19;12.80;99.90
38582;DHT22;24349;53.720;10.014;2024-02-15T11:01:49;12.80;99.90
38582;DHT22;24349;53.720;10.014;2024-02-15T11:04:20;12.80;99.90
38582;DHT22;24349;53.720;10.014;2024-02-15T11:06:55;12.90;99.90
38582;DHT22;24349;53.720;10.014;2024-02-15T11:09:21;12.90;99.90
38582;DHT22;24349;53.720;10.014;2024-02-15T11:11:48;12.80;99.90
38582;DHT22;24349;53.720;10.014;2024-02-15T11:14:23;13.00;99.90
38582;DHT22;24349;53.720;10.014;2024-02-15T11:16:49;13.00;99.90
38582;DHT22;24349;53.720;10.014;2024-02-15T11:19:45;13.00;99.90
38582;DHT22;24349;53.720;10.014;2024-02-15T11:22:15;13.00;99.90
38582;DHT22;24349;53.720;10.014;2024-02-15T11:24:54;13.00;99.90
38582;DHT22;24349;53.720;10.014;2024-02-15T11:27:30;13.00;99.90
38582;DHT22;24349;53.720;10.014;2024-02-15T11:30:00;13.00;99.90
38582;DHT22;24349;53.720;10.014;2024-02-15T11:32:48;13.00;99.90
38582;DHT22;24349;53.720;10.014;2024-02-15T11:35:22;13.00;99.90
38582;DHT22;24349;53.720;10.014;2024-02-15T11:46:17;13.00;99.90
38582;DHT22;24349;53.720;10.014;2024-02-15T11:51:27;13.00;99.90
38582;DHT22;24349;53.720;10.014;2024-02-15T11:54:06;13.00;99.90
38582;DHT22;24349;53.720;10.014;2024-02-15T11:56:48;13.00;99.90
38582;DHT22;24349;53.720;10.014;2024-02-15T11:59:16;13.00;99.90
38582;DHT22;24349;53.720;10.014;2024-02-15T12:01:57;12.90;99.90
38582;DHT22;24349;53.720;10.014;2024-02-15T12:04:42;12.90;99.90
38582;DHT22;24349;53.720;10.014;2024-02-15T12:07:26;13.00;99.90
38582;DHT22;24349;53.720;10.014;2024-02-15T12:10:19;13.00;99.90
38582;DHT22;24349;53.720;10.014;2024-02-15T12:13:04;13.00;99.90
38582;DHT22;24349;53.720;10.014;2024-02-15T12:15:58;12.90;99.90
38582;DHT22;24349;53.720;10.014;2024-02-15T12:18:44;12.90;99.90
38582;DHT22;24349;53.720;10.014;2024-02-15T12:21:14;12.90;99.90
38582;DHT22;24349;53.720;10.014;2024-02-15T12:23:41;12.90;99.90
38582;DHT22;24349;53.720;10.014;2024-02-15T12:26:07;12.90;99.90
38582;DHT22;24349;53.720;10.014;2024-02-15T12:28:35;12.80;99.90
38582;DHT22;24349;53.720;10.014;2024-02-15T12:31:02;12.80;99.90
38582;DHT22;24349;53.720;10.014;2024-02-15T12:33:28;12.80;99.90
38582;DHT22;24349;53.720;10.014;2024-02-15T12:36:06;12.80;99.90
38582;DHT22;24349;53.720;10.014;2024-02-15T12:38:36;12.80;99.90
38582;DHT22;24349;53.720;10.014;2024-02-15T12:41:20;12.80;99.90
38582;DHT22;24349;53.720;10.014;2024-02-15T12:43:45;12.80;99.90
38582;DHT22;24349;53.720;10.014;2024-02-15T12:46:11;12.80;99.90
38582;DHT22;24349;53.720;10.014;2024-02-15T12:48:38;12.80;99.90
38582;DHT22;24349;53.720;10.014;2024-02-15T12:51:15;12.80;99.90
38582;DHT22;24349;53.720;10.014;2024-02-15T12:53:42;12.80;99.90
38582;DHT22;24349;53.720;10.014;2024-02-15T12:56:08;12.80;99.90
38582;DHT22;24349;53.720;10.014;2024-02-15T12:58:35;12.80;99.90
38582;DHT22;24349;53.720;10.014;2024-02-15T13:01:01;12.90;99.90
38582;DHT22;24349;53.720;10.014;2024-02-15T13:03:27;12.90;99.90
38582;DHT22;24349;53.720;10.014;2024-02-15T13:05:53;12.90;99.90
38582;DHT22;24349;53.720;10.014;2024-02-15T13:08:18;12.90;99.90
38582;DHT22;24349;53.720;10.014;2024-02-15T13:10:46;12.80;99.90
38582;DHT22;24349;53.720;10.014;2024-02-15T13:13:12;12.80;99.90
38582;DHT22;24349;53.720;10.014;2024-02-15T13:15:40;12.90;99.90
38582;DHT22;24349;53.720;10.014;2024-02-15T13:18:06;12.80;99.90
38582;DHT22;24349;53.720;10.014;2024-02-15T13:20:35;12.80;99.90
38582;DHT22;24349;53.720;10.014;2024-02-15T13:23:08;12.80;99.90
38582;DHT22;24349;53.720;10.014;2024-02-15T13:25:38;12.80;99.90
38582;DHT22;24349;53.720;10.014;2024-02-15T13:28:05;12.80;99.90
38582;DHT22;24349;53.720;10.014;2024-02-15T13:30:32;12.80;99.90
38582;DHT22;24349;53.720;10.014;2024-02-15T13:32:58;12.80;99.90
38582;DHT22;24349;53.720;10.014;2024-02-15T13:35:24;12.80;99.90
38582;DHT22;24349;53.720;10.014;2024-02-15T13:37:50;12.80;99.90
38582;DHT22;24349;53.720;10.014;2024-02-15T13:40:39;12.80;99.90
38582;DHT22;24349;53.720;10.014;2024-02-15T13:43:04;12.80;99.90
38582;DHT22;24349;53.720;10.014;2024-02-15T13:45:43;12.80;99.90
38582;DHT22;24349;53.720;10.014;2024-02-15T13:48:10;12.70;99.90
38582;DHT22;24349;53.720;10.014;2024-02-15T13:50:38;12.80;99.90
38582;DHT22;24349;53.720;10.014;2024-02-15T13:53:05;12.80;99.90
38582;DHT22;24349;53.720;10.014;2024-02-15T13:55:31;12.70;99.90
38582;DHT22;24349;53.720;10.014;2024-02-15T13:57:57;12.70;99.90
38582;DHT22;24349;53.720;10.014;2024-02-15T14:00:24;12.70;99.90
38582;DHT22;24349;53.720;10.014;2024-02-15T14:02:59;12.70;99.90
38582;DHT22;24349;53.720;10.014;2024-02-15T14:05:27;12.80;99.90
38582;DHT22;24349;53.720;10.014;2024-02-15T14:08:04;12.80;99.90
38582;DHT22;24349;53.720;10.014;2024-02-15T14:10:34;12.80;99.90
38582;DHT22;24349;53.720;10.014;2024-02-15T14:13:02;12.80;99.90
38582;DHT22;24349;53.720;10.014;2024-02-15T14:15:29;12.80;99.90
38582;DHT22;24349;53.720;10.014;2024-02-15T14:17:55;12.80;99.90
38582;DHT22;24349;53.720;10.014;2024-02-15T14:20:22;12.70;99.90
38582;DHT22;24349;53.720;10.014;2024-02-15T14:22:50;12.70;99.90
38582;DHT22;24349;53.720;10.014;2024-02-15T14:25:24;12.70;99.90
38582;DHT22;24349;53.720;10.014;2024-02-15T14:27:56;12.70;99.90
38582;DHT22;24349;53.720;10.014;2024-02-15T14:30:22;12.70;99.90
38582;DHT22;24349;53.720;10.014;2024-02-15T14:33:09;12.70;99.90
38582;DHT22;24349;53.720;10.014;2024-02-15T14:35:38;12.70;99.90
38582;DHT22;24349;53.720;10.014;2024-02-15T14:38:11;12.70;99.90
38582;DHT22;24349;53.720;10.014;2024-02-15T14:40:45;12.70;99.90
38582;DHT22;24349;53.720;10.014;2024-02-15T14:43:19;12.70;99.90
38582;DHT22;24349;53.720;10.014;2024-02-15T14:45:46;12.70;99.90
38582;DHT22;24349;53.720;10.014;2024-02-15T14:48:13;12.70;99.90
38582;DHT22;24349;53.720;10.014;2024-02-15T14:50:39;12.70;99.90
38582;DHT22;24349;53.720;10.014;2024-02-15T14:53:05;12.80;99.90
38582;DHT22;24349;53.720;10.014;2024-02-15T14:55:36;12.80;99.90
38582;DHT22;24349;53.720;10.014;2024-02-15T14:58:08;12.70;99.90
38582;DHT22;24349;53.720;10.014;2024-02-15T15:00:34;12.80;99.90
38582;DHT22;24349;53.720;10.014;2024-02-15T15:03:00;12.80;99.90
38582;DHT22;24349;53.720;10.014;2024-02-15T15:05:25;12.70;99.90
38582;DHT22;24349;53.720;10.014;2024-02-15T15:08:09;12.70;99.90
38582;DHT22;24349;53.720;10.014;2024-02-15T15:10:55;12.70;99.90
38582;DHT22;24349;53.720;10.014;2024-02-15T15:13:39;12.80;99.90
38582;DHT22;24349;53.720;10.014;2024-02-15T15:16:06;12.80;99.90
38582;DHT22;24349;53.720;10.014;2024-02-15T15:18:33;12.80;99.90
38582;DHT22;24349;53.720;10.014;2024-02-15T15:20:59;12.80;99.90
38582;DHT22;24349;53.720;10.014;2024-02-15T15:23:28;12.80;99.90
38582;DHT22;24349;53.720;10.014;2024-02-15T15:26:03;12.80;99.90
38582;DHT22;24349;53.720;10.014;2024-02-15T15:28:29;12.80;99.90
38582;DHT22;24349;53.720;10.014;2024-02-15T15:30:54;12.80;99.90
38582;DHT22;24349;53.720;10.014;2024-02-15T15:33:20;12.80;99.90
38582;DHT22;24349;53.720;10.014;2024-02-15T15:35:46;12.70;99.90
38582;DHT22;24349;53.720;10.014;2024-02-15T15:38:12;12.70;99.90